createdAt,value
2019-03-25T00:01:22.171Z,98465.36
2019-03-25T00:03:54.138Z,98465.00
2019-03-25T00:06:23.692Z,98469.13
2019-03-25T00:09:04.850Z,98469.34
2019-03-25T00:11:26.435Z,98468.22
2019-03-25T00:13:56.315Z,98466.88
2019-03-25T00:16:26.259Z,98467.94
2019-03-25T00:18:56.146Z,98464.02
2019-03-25T00:21:25.988Z,98462.14
2019-03-25T00:23:55.859Z,98460.30
2019-03-25T00:26:25.792Z,98455.61
2019-03-25T00:28:55.730Z,98461.34
2019-03-25T00:31:25.579Z,98461.43
2019-03-25T00:33:55.429Z,98462.72
2019-03-25T00:36:25.294Z,98457.20
2019-03-25T00:38:55.146Z,98455.48
2019-03-25T00:41:25.180Z,98446.00
2019-03-25T00:43:55.131Z,98441.73
2019-03-25T00:46:25.114Z,98441.88
2019-03-25T00:48:54.984Z,98438.93
2019-03-25T00:51:24.821Z,98437.73
2019-03-25T00:53:54.697Z,98434.72
2019-03-25T00:56:24.624Z,98437.73
2019-03-25T00:58:54.485Z,98438.55
2019-03-25T01:01:24.391Z,98435.53
2019-03-25T01:03:55.349Z,98424.16
2019-03-25T01:06:25.266Z,98422.45
2019-03-25T01:08:55.405Z,98420.86
2019-03-25T01:11:25.305Z,98420.97
2019-03-25T01:13:55.174Z,98417.92
2019-03-25T01:16:25.166Z,98412.69
2019-03-25T01:18:55.053Z,98421.84
2019-03-25T01:21:26.735Z,98419.78
2019-03-25T01:23:59.986Z,98406.32
2019-03-25T01:26:29.858Z,98419.12
2019-03-25T01:28:59.686Z,98407.64
2019-03-25T01:31:29.618Z,98408.48
2019-03-25T01:33:59.483Z,98404.09
2019-03-25T01:36:29.327Z,98407.55
2019-03-25T01:39:00.982Z,98402.42
2019-03-25T01:41:30.963Z,98398.19
2019-03-25T01:44:02.611Z,98398.44
2019-03-25T01:46:32.438Z,98396.52
2019-03-25T01:49:02.395Z,98394.03
2019-03-25T01:51:32.187Z,98396.91
2019-03-25T01:54:02.030Z,98398.87
2019-03-25T01:56:31.885Z,98398.70
2019-03-25T01:59:01.699Z,98404.14
2019-03-25T02:01:31.600Z,98392.73
2019-03-25T02:04:01.556Z,98389.86
2019-03-25T02:06:31.440Z,98391.53
2019-03-25T02:09:02.737Z,98385.59
2019-03-25T02:11:32.637Z,98388.34
2019-03-25T02:14:02.611Z,98388.26
2019-03-25T02:16:32.443Z,98392.16
2019-03-25T02:19:02.423Z,98383.86
2019-03-25T02:21:32.276Z,98393.95
2019-03-25T02:24:02.158Z,98386.05
2019-03-25T02:26:31.975Z,98389.78
2019-03-25T02:29:01.830Z,98384.04
2019-03-25T02:31:32.799Z,98383.39
2019-03-25T02:34:03.591Z,98382.27
2019-03-25T02:36:33.449Z,98380.91
2019-03-25T02:39:03.921Z,98375.58
2019-03-25T02:41:33.757Z,98370.05
2019-03-25T02:44:03.565Z,98369.33
2019-03-25T02:46:33.411Z,98373.56
2019-03-25T02:49:03.256Z,98361.83
2019-03-25T02:51:33.204Z,98367.23
2019-03-25T02:54:03.025Z,98373.56
2019-03-25T02:56:32.899Z,98370.13
2019-03-25T02:59:02.752Z,98373.88
2019-03-25T03:01:32.828Z,98379.20
2019-03-25T03:04:02.671Z,98369.95
2019-03-25T03:06:32.600Z,98370.75
2019-03-25T03:09:02.571Z,98374.44
2019-03-25T03:11:32.426Z,98368.38
2019-03-25T03:14:02.272Z,98370.92
2019-03-25T03:16:32.106Z,98372.66
2019-03-25T03:19:01.921Z,98373.70
2019-03-25T03:21:31.767Z,98370.61
2019-03-25T03:24:01.724Z,98373.95
2019-03-25T03:26:31.561Z,98365.08
2019-03-25T03:29:01.470Z,98362.75
2019-03-25T03:31:31.311Z,98361.47
2019-03-25T03:34:01.327Z,98354.51
2019-03-25T03:36:31.301Z,98351.14
2019-03-25T03:39:01.249Z,98354.89
2019-03-25T03:41:31.662Z,98360.14
2019-03-25T03:44:01.620Z,98356.07
2019-03-25T03:46:31.452Z,98357.44
2019-03-25T03:49:01.306Z,98352.36
2019-03-25T03:51:31.226Z,98356.28
2019-03-25T03:54:01.383Z,98350.59
2019-03-25T03:56:32.717Z,98347.52
2019-03-25T03:59:04.043Z,98344.18
2019-03-25T04:01:33.876Z,98348.94
2019-03-25T04:04:04.198Z,98347.63
2019-03-25T04:06:34.187Z,98352.20
2019-03-25T04:09:10.323Z,98356.02
2019-03-25T04:11:40.167Z,98354.55
2019-03-25T04:14:10.026Z,98357.08
2019-03-25T04:16:39.964Z,98358.88
2019-03-25T04:19:09.884Z,98360.51
2019-03-25T04:21:39.773Z,98364.70
2019-03-25T04:24:11.417Z,98359.05
2019-03-25T04:26:41.239Z,98354.50
2019-03-25T04:29:11.129Z,98358.12
2019-03-25T04:31:40.993Z,98356.59
2019-03-25T04:34:11.538Z,98357.69
2019-03-25T04:36:42.773Z,98355.62
2019-03-25T04:39:13.340Z,98367.67
2019-03-25T04:41:43.766Z,98373.58
2019-03-25T04:44:15.693Z,98374.08
2019-03-25T04:46:47.147Z,98376.05
2019-03-25T04:49:18.208Z,98381.20
2019-03-25T04:51:49.148Z,98375.05
2019-03-25T04:54:19.586Z,98381.52
2019-03-25T04:56:50.110Z,98385.18
2019-03-25T04:59:20.334Z,98380.81
2019-03-25T05:01:50.547Z,98384.67
2019-03-25T05:04:20.776Z,98383.52
2019-03-25T05:06:51.185Z,98380.30
2019-03-25T05:09:21.414Z,98381.95
2019-03-25T05:11:51.768Z,98383.70
2019-03-25T05:14:22.142Z,98378.09
2019-03-25T05:16:52.078Z,98385.41
2019-03-25T05:19:22.291Z,98380.59
2019-03-25T05:21:52.269Z,98378.89
2019-03-25T05:24:23.145Z,98375.91
2019-03-25T05:26:53.123Z,98382.42
2019-03-25T05:29:23.083Z,98373.21
2019-03-25T05:31:52.936Z,98369.37
2019-03-25T05:34:22.785Z,98366.42
2019-03-25T05:36:52.723Z,98367.52
2019-03-25T05:39:22.604Z,98367.23
2019-03-25T05:41:52.417Z,98364.41
2019-03-25T05:44:22.244Z,98366.77
2019-03-25T05:46:52.086Z,98368.88
2019-03-25T05:49:21.891Z,98370.33
2019-03-25T05:51:51.724Z,98372.73
2019-03-25T05:54:21.593Z,98369.20
2019-03-25T05:57:02.007Z,98377.06
2019-03-25T05:59:23.219Z,98371.20
2019-03-25T06:01:53.102Z,98365.08
2019-03-25T06:04:22.982Z,98360.81
2019-03-25T06:06:52.931Z,98356.48
2019-03-25T06:09:22.777Z,98353.28
2019-03-25T06:12:06.665Z,98344.52
2019-03-25T06:14:36.916Z,98354.19
2019-03-25T06:17:06.863Z,98350.50
2019-03-25T06:19:36.807Z,98347.19
2019-03-25T06:22:06.735Z,98359.86
2019-03-25T06:24:36.602Z,98357.62
2019-03-25T06:27:14.021Z,98353.15
2019-03-25T06:29:38.245Z,98353.50
2019-03-25T06:32:08.089Z,98348.89
2019-03-25T06:34:37.997Z,98342.33
2019-03-25T06:37:07.863Z,98342.98
2019-03-25T06:39:37.782Z,98352.30
2019-03-25T06:42:07.637Z,98352.30
2019-03-25T06:44:37.483Z,98349.59
2019-03-25T06:47:09.153Z,98345.88
2019-03-25T06:49:39.191Z,98351.66
2019-03-25T06:52:08.988Z,98354.14
2019-03-25T06:54:39.962Z,98349.97
2019-03-25T06:57:09.771Z,98354.02
2019-03-25T06:59:39.695Z,98347.25
2019-03-25T07:02:09.537Z,98339.14
2019-03-25T07:04:39.382Z,98330.30
2019-03-25T07:07:09.211Z,98324.43
2019-03-25T07:09:39.081Z,98334.48
2019-03-25T07:12:09.024Z,98333.72
2019-03-25T07:14:38.886Z,98328.84
2019-03-25T07:17:08.740Z,98326.98
2019-03-25T07:19:38.576Z,98327.86
2019-03-25T07:22:08.431Z,98329.59
2019-03-25T07:24:39.783Z,98333.95
2019-03-25T07:27:09.638Z,98333.89
2019-03-25T07:29:39.551Z,98325.14
2019-03-25T07:32:09.430Z,98325.91
2019-03-25T07:34:41.231Z,98324.31
2019-03-25T07:37:10.985Z,98336.75
2019-03-25T07:39:40.977Z,98328.74
2019-03-25T07:42:10.873Z,98318.28
2019-03-25T07:44:40.790Z,98322.69
2019-03-25T07:47:10.673Z,98317.98
2019-03-25T07:49:40.533Z,98310.52
2019-03-25T07:52:10.384Z,98314.34
2019-03-25T07:54:40.281Z,98306.03
2019-03-25T07:57:11.828Z,98297.62
2019-03-25T07:59:41.986Z,98292.38
2019-03-25T08:02:11.849Z,98282.37
2019-03-25T08:04:41.697Z,98294.57
2019-03-25T08:07:12.150Z,98302.08
2019-03-25T08:09:42.161Z,98299.33
2019-03-25T08:12:12.033Z,98300.72
2019-03-25T08:14:44.115Z,98284.85
2019-03-25T08:17:14.022Z,98292.19
2019-03-25T08:19:43.957Z,98293.77
2019-03-25T08:22:13.880Z,98288.28
2019-03-25T08:24:43.798Z,98286.37
2019-03-25T08:27:13.765Z,98291.88
2019-03-25T08:29:43.570Z,98296.41
2019-03-25T08:32:13.413Z,98280.87
2019-03-25T08:34:43.276Z,98288.46
2019-03-25T08:37:13.209Z,98316.46
2019-03-25T08:39:43.065Z,98310.97
2019-03-25T08:42:12.920Z,98323.22
2019-03-25T08:44:42.732Z,98319.13
2019-03-25T08:47:12.708Z,98333.97
2019-03-25T08:49:42.582Z,98326.59
2019-03-25T08:52:12.537Z,98331.06
2019-03-25T08:54:42.365Z,98334.34
2019-03-25T08:57:12.220Z,98332.66
2019-03-25T08:59:42.073Z,98343.39
2019-03-25T09:02:12.005Z,98346.22
2019-03-25T09:04:42.012Z,98348.31
2019-03-25T09:07:11.833Z,98354.30
2019-03-25T09:09:41.691Z,98355.89
2019-03-25T09:12:11.512Z,98359.09
2019-03-25T09:14:41.352Z,98350.80
2019-03-25T09:17:11.314Z,98354.16
2019-03-25T09:19:41.153Z,98360.02
2019-03-25T09:22:11.001Z,98356.25
2019-03-25T09:24:40.854Z,98352.70
2019-03-25T09:27:10.727Z,98339.24
2019-03-25T09:29:40.682Z,98332.95
2019-03-25T09:32:10.606Z,98334.06
2019-03-25T09:34:40.579Z,98342.96
2019-03-25T09:37:10.561Z,98336.83
2019-03-25T09:39:40.504Z,98349.84
2019-03-25T09:42:10.487Z,98337.95
2019-03-25T09:44:40.336Z,98346.14
2019-03-25T09:47:10.318Z,98341.48
2019-03-25T09:49:40.277Z,98332.96
2019-03-25T09:52:10.105Z,98343.38
2019-03-25T09:54:39.956Z,98341.16
2019-03-25T09:57:09.900Z,98341.69
2019-03-25T09:59:39.732Z,98343.93
2019-03-25T10:02:09.576Z,98342.93
2019-03-25T10:04:39.527Z,98347.48
2019-03-25T10:07:11.039Z,98346.27
2019-03-25T10:09:40.861Z,98349.61
2019-03-25T10:12:10.665Z,98350.72
2019-03-25T10:14:40.530Z,98346.45
2019-03-25T10:17:12.167Z,98347.76
2019-03-25T10:19:42.007Z,98340.66
2019-03-25T10:22:11.791Z,98351.75
2019-03-25T10:24:41.635Z,98346.25
2019-03-25T10:27:11.464Z,98352.94
2019-03-25T10:29:41.427Z,98349.64
2019-03-25T10:32:11.251Z,98352.07
2019-03-25T10:34:41.061Z,98348.16
2019-03-25T10:37:10.943Z,98344.95
2019-03-25T10:39:40.754Z,98338.78
2019-03-25T10:42:10.614Z,98328.45
2019-03-25T10:44:40.437Z,98329.52
2019-03-25T10:47:11.674Z,98323.14
2019-03-25T10:49:41.486Z,98313.30
2019-03-25T10:52:11.429Z,98313.13
2019-03-25T10:54:41.368Z,98300.12
2019-03-25T10:57:11.897Z,98303.83
2019-03-25T10:59:41.766Z,98295.72
2019-03-25T11:02:11.995Z,98296.60
2019-03-25T11:04:42.002Z,98296.48
2019-03-25T11:07:11.975Z,98305.67
2019-03-25T11:09:41.871Z,98276.86
2019-03-25T11:12:11.721Z,98288.54
2019-03-25T11:14:41.541Z,98303.23
2019-03-25T11:17:11.498Z,98305.72
2019-03-25T11:19:41.351Z,98319.66
2019-03-25T11:22:11.209Z,98307.37
2019-03-25T11:24:41.010Z,98324.22
2019-03-25T11:27:10.855Z,98327.95
2019-03-25T11:29:40.709Z,98337.80
2019-03-25T11:32:11.182Z,98335.73
2019-03-25T11:34:41.008Z,98335.94
2019-03-25T11:37:10.948Z,98332.31
2019-03-25T11:39:43.955Z,98340.98
2019-03-25T11:42:15.262Z,98335.16
2019-03-25T11:44:45.143Z,98332.47
2019-03-25T11:47:16.566Z,98321.64
2019-03-25T11:49:47.468Z,98316.19
2019-03-25T11:52:19.125Z,98317.01
2019-03-25T11:54:48.998Z,98326.25
2019-03-25T11:57:18.913Z,98329.33
2019-03-25T11:59:48.737Z,98328.26
2019-03-25T12:02:18.641Z,98321.77
2019-03-25T12:04:48.491Z,98315.41
2019-03-25T12:07:18.469Z,98315.47
2019-03-25T12:09:48.373Z,98306.87
2019-03-25T12:12:18.212Z,98317.27
2019-03-25T12:14:48.063Z,98308.02
2019-03-25T12:17:19.361Z,98300.03
2019-03-25T12:19:49.248Z,98313.33
2019-03-25T12:22:19.324Z,98372.17
2019-03-25T12:24:49.187Z,98380.81
2019-03-25T12:27:19.011Z,98382.84
2019-03-25T12:29:48.833Z,98396.89
2019-03-25T12:32:18.672Z,98391.59
2019-03-25T12:34:49.712Z,98389.98
2019-03-25T12:37:19.610Z,98392.73
2019-03-25T12:39:49.545Z,98400.20
2019-03-25T12:42:19.446Z,98386.45
2019-03-25T12:44:49.286Z,98360.52
2019-03-25T12:47:20.371Z,98354.34
2019-03-25T12:49:51.329Z,98335.39
2019-03-25T12:52:21.179Z,98312.18
2019-03-25T12:54:51.019Z,98310.66
2019-03-25T12:57:20.965Z,98312.92
2019-03-25T12:59:50.903Z,98311.09
2019-03-25T13:02:20.782Z,98306.65
2019-03-25T13:04:50.765Z,98302.28
2019-03-25T13:07:20.648Z,98295.08
2019-03-25T13:09:50.502Z,98284.98
2019-03-25T13:12:20.321Z,98279.23
2019-03-25T13:14:50.165Z,98282.66
2019-03-25T13:17:20.056Z,98276.33
2019-03-25T13:19:49.998Z,98283.04
2019-03-25T13:22:19.942Z,98281.66
2019-03-25T13:24:49.760Z,98284.75
2019-03-25T13:27:19.597Z,98279.70
2019-03-25T13:29:52.719Z,98302.05
2019-03-25T13:32:21.075Z,98313.70
2019-03-25T13:34:50.940Z,98321.03
2019-03-25T13:37:20.859Z,98315.17
2019-03-25T13:39:50.915Z,98303.23
2019-03-25T13:42:20.846Z,98304.97
2019-03-25T13:44:50.692Z,98287.58
2019-03-25T13:47:20.805Z,98298.08
2019-03-25T13:49:50.632Z,98296.36
2019-03-25T13:52:20.510Z,98288.89
2019-03-25T13:54:50.364Z,98288.66
2019-03-25T13:57:20.205Z,98279.22
2019-03-25T13:59:50.037Z,98274.12
2019-03-25T14:02:19.853Z,98271.64
2019-03-25T14:04:49.770Z,98274.94
2019-03-25T14:07:19.717Z,98271.91
2019-03-25T14:09:49.572Z,98267.15
2019-03-25T14:12:19.444Z,98269.09
2019-03-25T14:14:50.352Z,98277.63
2019-03-25T14:17:20.401Z,98293.31
2019-03-25T14:19:50.236Z,98293.17
2019-03-25T14:22:20.098Z,98330.80
2019-03-25T14:24:49.940Z,98319.91
2019-03-25T14:27:19.772Z,98326.13
2019-03-25T14:29:49.711Z,98324.00
2019-03-25T14:32:19.550Z,98335.97
2019-03-25T14:34:49.363Z,98341.57
2019-03-25T14:37:19.197Z,98348.83
2019-03-25T14:39:50.836Z,98362.45
2019-03-25T14:42:20.703Z,98356.48
2019-03-25T14:44:50.619Z,98359.00
2019-03-25T14:47:20.852Z,98357.82
2019-03-25T14:49:50.725Z,98352.13
2019-03-25T14:52:20.552Z,98355.55
2019-03-25T14:54:50.434Z,98349.91
2019-03-25T14:57:20.253Z,98340.63
2019-03-25T14:59:51.074Z,98342.58
2019-03-25T15:02:20.957Z,98340.42
2019-03-25T15:04:50.936Z,98339.87
2019-03-25T15:07:20.937Z,98337.98
2019-03-25T15:09:50.850Z,98344.24
2019-03-25T15:12:20.746Z,98350.05
2019-03-25T15:14:50.723Z,98351.80
2019-03-25T15:17:20.596Z,98350.02
2019-03-25T15:19:50.512Z,98348.53
2019-03-25T15:22:20.380Z,98347.45
2019-03-25T15:24:50.219Z,98337.08
2019-03-25T15:27:20.031Z,98348.89
2019-03-25T15:29:49.892Z,98351.10
2019-03-25T15:32:19.846Z,98349.28
2019-03-25T15:34:49.804Z,98354.15
2019-03-25T15:37:19.683Z,98352.25
2019-03-25T15:39:49.531Z,98366.70
2019-03-25T15:42:19.437Z,98366.61
2019-03-25T15:44:49.285Z,98371.80
2019-03-25T15:47:19.210Z,98367.41
2019-03-25T15:49:50.875Z,98369.87
2019-03-25T15:52:20.894Z,98371.55
2019-03-25T15:54:50.704Z,98368.18
2019-03-25T15:57:20.660Z,98377.56
2019-03-25T15:59:50.520Z,98374.55
2019-03-25T16:02:20.479Z,98375.06
2019-03-25T16:04:50.311Z,98383.23
2019-03-25T16:07:20.165Z,98386.51
2019-03-25T16:09:50.015Z,98381.75
2019-03-25T16:12:20.896Z,98384.22
2019-03-25T16:14:50.699Z,98389.12
2019-03-25T16:17:20.540Z,98390.09
2019-03-25T16:19:50.441Z,98394.93
2019-03-25T16:22:20.450Z,98400.84
2019-03-25T16:24:50.346Z,98391.83
2019-03-25T16:27:23.069Z,98392.48
2019-03-25T16:29:52.978Z,98400.77
2019-03-25T16:32:22.859Z,98400.14
2019-03-25T16:34:52.738Z,98395.27
2019-03-25T16:37:23.718Z,98394.86
2019-03-25T16:39:53.559Z,98397.89
2019-03-25T16:42:23.405Z,98405.79
2019-03-25T16:44:53.243Z,98414.94
2019-03-25T16:47:23.100Z,98411.59
2019-03-25T16:49:53.013Z,98427.38
2019-03-25T16:52:22.897Z,98426.96
2019-03-25T16:54:52.774Z,98428.63
2019-03-25T16:57:24.238Z,98438.04
2019-03-25T16:59:56.392Z,98435.64
2019-03-25T17:02:26.562Z,98448.89
2019-03-25T17:04:56.445Z,98443.23
2019-03-25T17:07:26.422Z,98441.51
2019-03-25T17:09:56.288Z,98450.23
2019-03-25T17:12:26.142Z,98444.81
2019-03-25T17:14:56.138Z,98458.01
2019-03-25T17:17:26.073Z,98465.22
2019-03-25T17:19:55.919Z,98466.91
2019-03-25T17:22:25.871Z,98477.27
2019-03-25T17:24:55.811Z,98478.38
2019-03-25T17:27:25.661Z,98474.37
2019-03-25T17:29:55.494Z,98481.58
2019-03-25T17:32:25.369Z,98477.38
2019-03-25T17:34:55.213Z,98483.05
2019-03-25T17:37:25.123Z,98485.02
2019-03-25T17:39:56.463Z,98485.75
2019-03-25T17:42:26.355Z,98496.96
2019-03-25T17:44:56.211Z,98495.11
2019-03-25T17:47:26.165Z,98503.75
2019-03-25T17:49:58.357Z,98509.04
2019-03-25T17:52:28.305Z,98520.98
2019-03-25T17:54:58.210Z,98519.65
2019-03-25T17:57:28.065Z,98519.88
2019-03-25T17:59:57.913Z,98524.31
2019-03-25T18:02:27.800Z,98528.58
2019-03-25T18:04:57.650Z,98530.48
2019-03-25T18:07:27.540Z,98532.34
2019-03-25T18:09:57.390Z,98530.84
2019-03-25T18:12:34.535Z,98538.59
2019-03-25T18:14:58.783Z,98538.87
2019-03-25T18:17:28.648Z,98547.22
2019-03-25T18:20:00.118Z,98542.86
2019-03-25T18:22:39.483Z,98552.67
2019-03-25T18:25:05.953Z,98566.84
2019-03-25T18:27:37.996Z,98564.36
2019-03-25T18:30:10.536Z,98567.26
2019-03-25T18:32:42.627Z,98570.11
2019-03-25T18:35:17.789Z,98573.20
2019-03-25T18:37:49.822Z,98579.72
2019-03-25T18:40:20.737Z,98580.48
2019-03-25T18:42:50.649Z,98579.98
2019-03-25T18:45:21.678Z,98580.47
2019-03-25T18:47:53.335Z,98589.75
2019-03-25T18:50:23.645Z,98591.07
2019-03-25T18:52:53.513Z,98597.87
2019-03-25T18:55:25.340Z,98599.28
2019-03-25T18:57:55.629Z,98604.92
2019-03-25T19:00:33.421Z,98614.91
2019-03-25T19:03:03.537Z,98610.13
2019-03-25T19:05:33.623Z,98619.03
2019-03-25T19:08:05.984Z,98620.62
2019-03-25T19:10:35.925Z,98629.05
2019-03-25T19:13:05.991Z,98639.08
2019-03-25T19:15:36.994Z,98640.89
2019-03-25T19:18:06.851Z,98632.59
2019-03-25T19:20:36.737Z,98633.69
2019-03-25T19:23:06.746Z,98636.16
2019-03-25T19:25:36.640Z,98638.56
2019-03-25T19:28:06.562Z,98648.44
2019-03-25T19:30:36.530Z,98655.66
2019-03-25T19:33:06.638Z,98657.77
2019-03-25T19:35:36.715Z,98660.98
2019-03-25T19:38:06.651Z,98668.61
2019-03-25T19:40:36.992Z,98677.78
2019-03-25T19:43:07.022Z,98680.18
2019-03-25T19:45:36.998Z,98689.48
2019-03-25T19:48:06.969Z,98695.06
2019-03-25T19:50:36.898Z,98706.14
2019-03-25T19:53:18.350Z,98709.77
2019-03-25T19:55:38.805Z,98714.70
2019-03-25T19:58:08.786Z,98720.19
2019-03-25T20:00:40.415Z,98728.48
2019-03-25T20:03:10.365Z,98728.05
2019-03-25T20:05:40.339Z,98739.75
2019-03-25T20:08:10.452Z,98741.33
2019-03-25T20:10:40.585Z,98746.07
2019-03-25T20:13:10.644Z,98745.38
2019-03-25T20:15:46.504Z,98753.23
2019-03-25T20:18:12.331Z,98749.53
2019-03-25T20:20:42.156Z,98750.44
2019-03-25T20:23:12.038Z,98758.09
2019-03-25T20:25:41.814Z,98758.45
2019-03-25T20:28:11.714Z,98765.12
2019-03-25T20:30:41.617Z,98769.75
2019-03-25T20:33:11.561Z,98765.08
2019-03-25T20:35:41.447Z,98771.30
2019-03-25T20:38:11.473Z,98768.88
2019-03-25T20:40:41.627Z,98770.00
2019-03-25T20:43:11.553Z,98778.36
2019-03-25T20:45:41.668Z,98772.44
2019-03-25T20:48:11.747Z,98773.89
2019-03-25T20:50:41.831Z,98782.47
2019-03-25T20:53:11.767Z,98789.20
2019-03-25T20:55:41.657Z,98786.42
2019-03-25T20:58:11.775Z,98796.15
2019-03-25T21:00:49.202Z,98800.56
2019-03-25T21:03:19.372Z,98797.11
2019-03-25T21:05:49.279Z,98799.44
2019-03-25T21:08:19.193Z,98800.82
2019-03-25T21:10:49.192Z,98808.94
2019-03-25T21:13:19.387Z,98809.67
2019-03-25T21:15:49.207Z,98809.38
2019-03-25T21:18:19.275Z,98808.36
2019-03-25T21:20:49.139Z,98806.67
2019-03-25T21:23:18.984Z,98814.20
2019-03-25T21:25:48.822Z,98820.94
2019-03-25T21:28:18.667Z,98820.33
2019-03-25T21:30:48.888Z,98824.77
2019-03-25T21:33:18.991Z,98821.73
2019-03-25T21:35:49.546Z,98817.99
2019-03-25T21:38:19.592Z,98829.77
2019-03-25T21:40:49.753Z,98826.09
2019-03-25T21:43:19.927Z,98822.75
2019-03-25T21:45:49.885Z,98830.91
2019-03-25T21:48:19.795Z,98831.91
2019-03-25T21:50:49.639Z,98832.85
2019-03-25T21:53:19.647Z,98840.13
2019-03-25T21:55:49.449Z,98838.25
2019-03-25T21:58:19.546Z,98849.73
2019-03-25T22:00:51.954Z,98850.86
2019-03-25T22:03:21.864Z,98858.40
2019-03-25T22:05:52.077Z,98855.17
2019-03-25T22:08:21.963Z,98866.01
2019-03-25T22:10:51.777Z,98859.28
2019-03-25T22:13:21.692Z,98863.41
2019-03-25T22:15:52.350Z,98866.89
2019-03-25T22:18:22.183Z,98866.50
2019-03-25T22:20:52.095Z,98871.41
2019-03-25T22:23:21.956Z,98875.94
2019-03-25T22:25:52.442Z,98878.66
2019-03-25T22:28:22.304Z,98878.96
2019-03-25T22:30:52.429Z,98883.56
2019-03-25T22:33:26.146Z,98882.72
2019-03-25T22:35:53.971Z,98882.16
2019-03-25T22:38:23.805Z,98886.21
2019-03-25T22:40:53.630Z,98890.03
2019-03-25T22:43:23.491Z,98899.81
2019-03-25T22:45:53.580Z,98892.81
2019-03-25T22:48:23.402Z,98895.28
2019-03-25T22:50:53.289Z,98903.63
2019-03-25T22:53:23.195Z,98904.72
2019-03-25T22:55:53.151Z,98907.97
2019-03-25T22:58:24.441Z,98910.12
2019-03-25T23:00:55.091Z,98903.71
2019-03-25T23:03:38.187Z,98912.92
2019-03-25T23:05:56.716Z,98915.38
2019-03-25T23:08:26.802Z,98909.13
2019-03-25T23:10:56.648Z,98909.75
2019-03-25T23:13:27.893Z,98915.23
2019-03-25T23:15:57.835Z,98912.72
2019-03-25T23:18:27.702Z,98915.48
2019-03-25T23:20:57.532Z,98925.27
2019-03-25T23:23:27.412Z,98925.84
2019-03-25T23:25:57.242Z,98929.75
2019-03-25T23:28:27.096Z,98937.31
2019-03-25T23:30:56.920Z,98941.41
2019-03-25T23:33:26.928Z,98945.72
2019-03-25T23:35:56.747Z,98945.45
2019-03-25T23:38:26.564Z,98940.34
2019-03-25T23:40:58.409Z,98951.66
2019-03-25T23:43:28.302Z,98947.56
2019-03-25T23:45:58.190Z,98954.49
2019-03-25T23:48:28.043Z,98963.19
2019-03-25T23:50:57.925Z,98968.58
2019-03-25T23:53:27.788Z,98971.76
2019-03-25T23:55:57.605Z,98975.59
2019-03-25T23:58:27.446Z,98978.29
